CDT,Max TemperatureF,Mean TemperatureF,Min TemperatureF,Max Dew PointF,MeanDew PointF,Min DewpointF,Max Humidity, Mean Humidity, Min Humidity, Max Sea Level PressureIn, Mean Sea Level PressureIn, Min Sea Level PressureIn, Max VisibilityMiles, Mean VisibilityMiles, Min VisibilityMiles, Max Wind SpeedMPH, Mean Wind SpeedMPH, Max Gust SpeedMPH,PrecipitationIn, CloudCover, Events, WindDirDegrees
2011-10-1,79,64,50,51,46,41,89,54,28,30.13,30.07,30.01,10,10,10,14,6,21,0.00,0,,356
2011-10-2,75,64,52,52,46,42,88,57,33,30.20,30.15,30.11,10,10,10,13,6,23,0.00,0,,11
2011-10-3,79,64,48,53,47,37,93,64,24,30.25,30.19,30.14,10,10,10,13,2,,0.00,0,,55
2011-10-4,82,66,51,57,50,44,93,63,26,30.25,30.19,30.14,10,10,10,8,1,,0.00,0,,73
2011-10-5,84,68,54,66,57,47,93,69,28,30.18,30.13,30.09,10,10,10,15,3,,0.00,0,,97
2011-10-6,82,72,62,64,60,57,93,70,44,30.16,30.13,30.09,10,10,10,21,5,26,0.00,0,,86
2011-10-7,84,72,62,66,62,58,90,70,46,30.20,30.15,30.12,10,10,10,17,6,24,0.00,0,,86
2011-10-8,84,76,68,67,63,56,78,66,49,30.18,30.13,30.08,10,10,10,18,10,26,0.00,1,,81
2011-10-9,84,75,66,64,61,58,76,64,49,30.09,30.03,29.96,10,10,10,15,10,22,0.00,2,,62
2011-10-10,86,74,64,64,62,60,88,69,48,29.99,29.93,29.86,10,10,10,13,8,21,0.00,1,,30
2011-10-11,78,72,66,65,63,62,88,78,66,29.89,29.86,29.81,10,10,9,10,7,,0.00,7,,355
2011-10-12,77,72,68,70,66,64,90,80,69,29.87,29.83,29.78,10,9,2,7,3,,0.00,6,Rain-Thunderstorm,181
2011-10-13,86,73,61,70,62,52,96,76,35,29.87,29.79,29.73,10,8,2,14,4,21,0.12,1,Rain-Thunderstorm,299
2011-10-14,82,68,54,58,54,45,97,69,26,30.02,29.95,29.87,10,10,7,9,2,,0.00,0,,110
2011-10-15,87,70,55,62,56,50,93,66,30,30.10,30.06,30.03,10,10,7,7,2,,0.00,0,Tornado,71
2011-10-16,88,72,57,60,56,48,96,69,27,30.12,30.07,30.01,10,9,6,9,2,,0.01,0,,100
2011-10-17,82,68,55,70,62,53,94,78,52,30.01,29.92,29.81,10,9,6,12,3,,0.00,0,,147
2011-10-18,87,70,55,72,63,46,100,83,49,29.78,29.71,29.59,10,7,0,25,4,37,0.01,5,Fog-Rain,330
2011-10-19,66,54,43,44,40,35,82,61,38,30.01,29.84,29.75,10,10,10,21,13,33,0.00,1,,315
2011-10-20,66,52,37,41,35,28,89,62,25,30.15,30.09,30.04,10,10,10,12,3,21,0.00,0,,316
2011-10-21,75,56,39,44,38,30,93,61,21,30.23,30.17,30.13,10,10,10,10,2,,0.00,0,,340
2011-10-22,75,60,44,46,41,36,86,61,26,30.21,30.13,30.07,10,10,10,12,2,16,0.00,0,,21
2011-10-23,73,58,42,56,45,38,93,65,29,30.11,30.08,30.04,10,10,5,8,2,,0.00,1,,186
2011-10-24,82,70,57,62,56,52,93,68,35,30.20,30.14,30.09,10,10,10,10,3,,0.00,2,,342
2011-10-25,79,66,53,60,54,50,90,71,37,30.23,30.17,30.12,10,10,8,13,4,,0.00,0,,101
2011-10-26,79,66,55,63,56,52,94,79,40,30.10,30.03,29.96,10,6,0,14,2,,0.00,1,Fog,141
2011-10-27,80,66,53,63,56,51,100,82,48,29.97,29.93,29.88,10,6,1,9,1,,0.00,0,,169
2011-10-28,80,67,53,64,56,45,100,82,60,30.08,29.94,29.88,10,7,1,22,4,29,0.01,4,,342
2011-10-29,68,56,43,43,36,30,80,55,27,30.17,30.11,30.08,10,10,10,22,13,33,0.00,0,,360
2011-10-30,69,56,44,48,40,35,83,59,40,30.21,30.18,30.15,10,10,10,12,5,,0.00,1,,63
2011-10-31,73,58,42,46,41,37,89,64,27,30.22,30.18,30.12,10,10,9,13,3,22,0.00,0,,353